Buoy 44906

sailwx.info

Track history (hours):
 
Tides and Currents Weather Stations Pressure Air Temp Water Temp Dewpoint Dewpoint Depression Visibility Wind Speed Wind Dir Waves Ship Positions

Drifting buoy 44906

Last reported at 2016-Dec-03 12:00 UTC. Time now 2016-Dec-03 13:41 UTC.
Position N 40°07' W 034°35'.

Water temperature 18.7 ° C

Date/timePositionNaut miles runAvg speedWind from/ knotsBaromVisibWave heightAir tempDewpointWater temp
2016-Dec-03 12:00N 40°07' W 034°35'1 0.6 18.7
2016-Dec-03 11:00N 40°07' W 034°35'0 0.0 18.7
2016-Dec-03 10:00N 40°07' W 034°35'0 0.5 18.7
2016-Dec-03 09:00N 40°07' W 034°34'1 0.8 18.7
2016-Dec-03 08:00N 40°08' W 034°35'0 0.5 18.7
2016-Dec-03 07:00N 40°08' W 034°34'4 4.3 18.7
2016-Dec-03 06:00N 40°11' W 034°37'0 0.0 18.7
2016-Dec-03 05:00N 40°11' W 034°37'0 0.0 18.8
2016-Dec-03 01:00N 40°11' W 034°37'0 0.0 18.8
2016-Dec-03 00:00N 40°11' W 034°37'1 1.2 18.9
2016-Dec-02 23:00N 40°13' W 034°37'1 0.9 18.9
2016-Dec-02 22:00N 40°13' W 034°38'1 0.6 18.9
2016-Dec-02 21:00N 40°13' W 034°38'1 0.8 18.9
2016-Dec-02 20:00N 40°14' W 034°39'3 0.9 18.9
2016-Dec-02 17:00N 40°16' W 034°41'0 0.0 18.9
2016-Dec-02 16:00N 40°16' W 034°41'0 0.5 18.9
2016-Dec-02 15:00N 40°16' W 034°42'1 0.3 18.9
2016-Dec-02 13:00N 40°16' W 034°42'2 1.5 18.9
2016-Dec-02 12:00N 40°17' W 034°43'1 0.8 18.9
2016-Dec-02 11:00N 40°18' W 034°44'0 0.0 18.9
2016-Dec-02 10:00N 40°18' W 034°44'0 0.5 18.9
2016-Dec-02 09:00N 40°18' W 034°43'2 1.5 18.9
2016-Dec-02 08:00N 40°19' W 034°44'1 0.3 18.9
2016-Dec-02 05:00N 40°20' W 034°45'4 0.7 19.0
2016-Dec-01 23:00N 40°21' W 034°50'1 0.6 19.1
2016-Dec-01 22:00N 40°22' W 034°50'1 0.6 19.1
2016-Dec-01 21:00N 40°22' W 034°50'0 0.5 19.1
2016-Dec-01 20:00N 40°22' W 034°50'0 0.0 19.1
2016-Dec-01 19:00N 40°22' W 034°50'1 1.4 19.1
2016-Dec-01 18:00N 40°22' W 034°52'0 0.0 19.1
2016-Dec-01 17:00N 40°22' W 034°52'2 2.3 19.2
2016-Dec-01 16:00N 40°24' W 034°53'0 0.0 19.2
2016-Dec-01 15:00N 40°24' W 034°53'0 0.0 19.2
2016-Dec-01 14:00N 40°24' W 034°53'2 1.9 19.2
2016-Dec-01 13:00N 40°25' W 034°56'0 0.0 19.2
2016-Dec-01 12:00N 40°25' W 034°56'1 1.3 19.3
2016-Dec-01 11:00N 40°26' W 034°56'1 0.6 19.3
2016-Dec-01 10:00N 40°25' W 034°56'1 0.7 19.3
2016-Dec-01 08:00N 40°26' W 034°58'1 1.4 19.3
2016-Dec-01 07:00N 40°26' W 035°00'1 0.7 19.3
2016-Dec-01 05:00N 40°25' W 035°02'3 3.0 19.3
2016-Dec-01 04:00N 40°22' W 035°02'0 0.0 19.3
2016-Dec-01 03:00N 40°22' W 035°02'1 0.3 19.3
2016-Dec-01 00:00N 40°23' W 035°01'0 0.0 19.4
2016-Nov-30 23:00N 40°23' W 035°01'1 0.8 19.5
2016-Nov-30 22:00N 40°23' W 035°02'1 0.8 19.5
2016-Nov-30 21:00N 40°23' W 035°02'0 0.0 19.5
2016-Nov-30 20:00N 40°23' W 035°02'0 0.0 19.5
2016-Nov-30 19:00N 40°23' W 035°02'1 0.6 19.5
2016-Nov-30 18:00N 40°22' W 035°02'1 1.5 19.5
2016-Nov-30 17:00N 40°22' W 035°04'0 0.0 19.6
2016-Nov-30 16:00N 40°22' W 035°04'2 0.5 19.6
2016-Nov-30 13:00N 40°20' W 035°05'1 0.8 19.6
2016-Nov-30 12:00N 40°20' W 035°05'0 0.5 19.6
2016-Nov-30 11:00N 40°20' W 035°04'1 0.6 19.6
2016-Nov-30 10:00N 40°19' W 035°04'0 0.0 19.6
2016-Nov-30 09:00N 40°19' W 035°04'1 0.9 19.6
2016-Nov-30 08:00N 40°19' W 035°03'1 1.5 19.6
2016-Nov-30 07:00N 40°19' W 035°05'1 0.8 19.6
2016-Nov-30 06:00N 40°18' W 035°05'0 0.0 19.6
2016-Nov-30 05:00N 40°18' W 035°05'2 1.5 19.6
2016-Nov-30 04:00N 40°17' W 035°07'0 0.0 19.6
2016-Nov-30 00:00N 40°17' W 035°07'1 0.6 19.7
2016-Nov-29 23:00N 40°16' W 035°07'1 1.3 19.7
2016-Nov-29 22:00N 40°15' W 035°06'0 0.0 19.7
2016-Nov-29 21:00N 40°15' W 035°06'1 1.5 19.7
2016-Nov-29 20:00N 40°14' W 035°08'0 0.0 19.7
2016-Nov-29 19:00N 40°14' W 035°08'1 0.8 19.7
2016-Nov-29 18:00N 40°14' W 035°08'0 0.0 19.7
2016-Nov-29 17:00N 40°14' W 035°08'0 0.0 19.7
2016-Nov-29 16:00N 40°14' W 035°08'0 0.0 19.7
2016-Nov-29 15:00N 40°14' W 035°08'3 3.0 19.7
2016-Nov-29 14:00N 40°11' W 035°06'0 0.0 19.7
2016-Nov-29 13:00N 40°11' W 035°06'0 0.0 19.7
2016-Nov-29 12:00N 40°11' W 035°06'1 1.4 19.7
2016-Nov-29 11:00N 40°11' W 035°08'1 0.9 19.7
2016-Nov-29 10:00N 40°11' W 035°09'0 0.0 19.7
2016-Nov-29 09:00N 40°11' W 035°09'1 0.6 19.7
2016-Nov-29 08:00N 40°11' W 035°09'2 1.8 19.7
2016-Nov-29 07:00N 40°11' W 035°07'2 2.4 19.7
2016-Nov-29 06:00N 40°10' W 035°10'4 0.5 19.7
2016-Nov-28 23:00N 40°07' W 035°10'0 0.0 19.7
2016-Nov-28 22:00N 40°07' W 035°10'3 2.8 19.7
2016-Nov-28 21:00N 40°04' W 035°08'1 1.3 19.7
2016-Nov-28 20:00N 40°05' W 035°09'1 0.6 19.8
2016-Nov-28 19:00N 40°05' W 035°09'0 0.0 19.8
2016-Nov-28 18:00N 40°05' W 035°09'1 0.6 19.8
2016-Nov-28 16:00N 40°04' W 035°08'0 0.0 19.8
2016-Nov-28 15:00N 40°04' W 035°08'0 0.0 19.8
2016-Nov-28 14:00N 40°04' W 035°08'1 0.5 19.8
2016-Nov-28 12:00N 40°03' W 035°10'0 0.0 19.8
2016-Nov-28 11:00N 40°03' W 035°10'1 0.8 19.8
2016-Nov-28 10:00N 40°02' W 035°10'2 2.3 19.8
2016-Nov-28 09:00N 40°01' W 035°08'0 0.0 19.8
2016-Nov-28 07:00N 40°01' W 035°08'1 1.1 19.8
2016-Nov-28 06:00N 40°01' W 035°10'3 2.6 19.8
2016-Nov-28 05:00N 39°59' W 035°08'0 0.0 19.8
2016-Nov-28 01:00N 39°59' W 035°08'1 1.1 19.8
2016-Nov-28 00:00N 39°58' W 035°10'1 1.4 19.8
2016-Nov-27 23:00N 39°58' W 035°08'0 0.0 19.8
2016-Nov-27 22:00N 39°58' W 035°08'0 0.0 19.8
2016-Nov-27 21:00N 39°58' W 035°08'1 1.1 19.8
2016-Nov-27 20:00N 39°58' W 035°07'2 1.5 19.9
2016-Nov-27 19:00N 39°57' W 035°08'1 0.6 19.9
2016-Nov-27 18:00N 39°58' W 035°08'1 0.6 19.9
2016-Nov-27 17:00N 39°57' W 035°08'0 0.0 19.9
2016-Nov-27 16:00N 39°57' W 035°08'3 1.3 19.9
2016-Nov-27 14:00N 39°55' W 035°07'0 0.0 19.9
2016-Nov-27 13:00N 39°55' W 035°07'1 1.2 19.9
2016-Nov-27 12:00N 39°53' W 035°07'0 0.0 19.9
2016-Nov-27 11:00N 39°53' W 035°07'1 0.6 19.8
2016-Nov-27 10:00N 39°54' W 035°07'1 0.3 19.8
2016-Nov-27 08:00N 39°53' W 035°07'1 0.6 19.8
2016-Nov-27 07:00N 39°53' W 035°07'0 0.0 19.8
2016-Nov-27 06:00N 39°53' W 035°07'1 1.2 19.9
2016-Nov-27 05:00N 39°52' W 035°07'1 1.3 19.9
2016-Nov-27 04:00N 39°53' W 035°07'2 0.5 19.9
2016-Nov-27 00:00N 39°52' W 035°08'0 0.5 19.9
2016-Nov-26 23:00N 39°52' W 035°08'1 1.2 19.9
2016-Nov-26 22:00N 39°50' W 035°08'0 0.0 19.9
2016-Nov-26 21:00N 39°50' W 035°08'1 1.4 19.9
2016-Nov-26 20:00N 39°50' W 035°06'2 1.9 19.9
2016-Nov-26 19:00N 39°50' W 035°08'2 1.9 19.9
2016-Nov-26 18:00N 39°49' W 035°06'0 0.0 19.9
2016-Nov-26 17:00N 39°49' W 035°06'0 0.0 19.9
2016-Nov-26 16:00N 39°49' W 035°06'1 0.8 19.9
2016-Nov-26 15:00N 39°49' W 035°05'0 0.0 19.9
2016-Nov-26 14:00N 39°49' W 035°05'1 0.8 19.9
2016-Nov-26 13:00N 39°48' W 035°06'0 0.0 19.9
2016-Nov-26 12:00N 39°48' W 035°06'0 0.0 19.9
2016-Nov-26 11:00N 39°48' W 035°06'1 0.6 19.9
2016-Nov-26 10:00N 39°49' W 035°06'1 0.6 19.9
2016-Nov-26 09:00N 39°48' W 035°06'0 0.0 19.9
2016-Nov-26 08:00N 39°48' W 035°06'1 0.6 19.9
2016-Nov-26 07:00N 39°47' W 035°06'0 0.0 19.9
2016-Nov-26 06:00N 39°47' W 035°06'1 0.4 19.9
2016-Nov-26 03:00N 39°46' W 035°07'0 0.0 19.9
2016-Nov-26 00:00N 39°46' W 035°07'2 2.3 19.9
2016-Nov-25 23:00N 39°46' W 035°04'1 1.1 19.9
2016-Nov-25 22:00N 39°46' W 035°05'0 0.2 19.9
2016-Nov-25 20:00N 39°46' W 035°04'1 0.6 19.9
2016-Nov-25 19:00N 39°45' W 035°04'0 0.0 19.9
2016-Nov-25 18:00N 39°45' W 035°04'0 0.0 20.0
2016-Nov-25 17:00N 39°45' W 035°04'0 0.0 20.0
2016-Nov-25 16:00N 39°45' W 035°04'0 0.0 20.0
2016-Nov-25 15:00N 39°45' W 035°04'0 0.5 20.0
2016-Nov-25 14:00N 39°45' W 035°04'1 1.1 19.9
2016-Nov-25 13:00N 39°46' W 035°05'1 1.1 19.9
2016-Nov-25 12:00N 39°45' W 035°04'1 0.8 19.9
2016-Nov-25 11:00N 39°44' W 035°04'0 0.0 19.9
2016-Nov-25 10:00N 39°44' W 035°04'1 1.1 19.9
2016-Nov-25 09:00N 39°44' W 035°05'1 0.9 19.9
2016-Nov-25 08:00N 39°44' W 035°04'0 0.5 19.9
2016-Nov-25 07:00N 39°44' W 035°04'0 0.0 19.9
2016-Nov-25 06:00N 39°44' W 035°04'3 3.0 19.9
2016-Nov-25 05:00N 39°41' W 035°06'1 0.3 19.9
2016-Nov-25 00:00N 39°41' W 035°04'1 0.8 20.0
2016-Nov-24 23:00N 39°41' W 035°05'1 0.8 20.0
2016-Nov-24 22:00N 39°41' W 035°05'2 1.5 20.0
2016-Nov-24 21:00N 39°40' W 035°04'0 0.0 20.0
2016-Nov-24 20:00N 39°40' W 035°04'0 0.5 20.0
2016-Nov-24 19:00N 39°40' W 035°05'1 0.8 20.0
2016-Nov-24 18:00N 39°40' W 035°04'2 1.5 20.0
2016-Nov-24 17:00N 39°39' W 035°06'2 1.5 20.0
2016-Nov-24 16:00N 39°40' W 035°04'2 1.5 20.0
2016-Nov-24 15:00N 39°39' W 035°06'2 1.1 20.0
2016-Nov-24 13:00N 39°38' W 035°04'1 0.8 20.0
2016-Nov-24 12:00N 39°38' W 035°04'2 1.5 20.0
2016-Nov-24 11:00N 39°38' W 035°06'0 0.0 20.0
2016-Nov-24 10:00N 39°38' W 035°06'1 1.1 20.0
2016-Nov-24 09:00N 39°37' W 035°05'0 0.0 20.0
2016-Nov-24 08:00N 39°37' W 035°05'1 1.1 20.0
2016-Nov-24 07:00N 39°37' W 035°04'0 0.0 20.0
2016-Nov-24 06:00N 39°37' W 035°04'1 0.9 20.0
2016-Nov-24 05:00N 39°37' W 035°05'0 0.5 20.0
2016-Nov-24 04:00N 39°37' W 035°05'0 0.0 20.0
2016-Nov-24 03:00N 39°37' W 035°05'1 0.3 20.0
2016-Nov-24 00:00N 39°36' W 035°05'0 0.0 20.0
2016-Nov-23 23:00N 39°36' W 035°05'0 0.0 20.0
2016-Nov-23 22:00N 39°36' W 035°05'1 1.3 20.0
2016-Nov-23 21:00N 39°35' W 035°04'0 0.5 20.0
2016-Nov-23 20:00N 39°35' W 035°05'1 0.6 20.0
2016-Nov-23 19:00N 39°34' W 035°05'0 0.5 20.0
2016-Nov-23 18:00N 39°34' W 035°04'1 0.6 20.0
2016-Nov-23 17:00N 39°34' W 035°04'0 0.0 20.0
2016-Nov-23 16:00N 39°34' W 035°04'0 0.0 20.0
2016-Nov-23 15:00N 39°34' W 035°04'1 0.4 20.0
2016-Nov-23 12:00N 39°33' W 035°03'   20.0
Track history (hours):
 
Tides and Currents Weather Stations Pressure Air Temp Water Temp Dewpoint Dewpoint Depression Visibility Wind Speed Wind Dir Waves Ship Positions

Drifting buoy 44906

Last reported at 2016-Dec-03 12:00 UTC. Time now 2016-Dec-03 13:41 UTC.
Position N 40°07' W 034°35'.

Water temperature 18.7 ° C

Date/timePositionNaut miles runAvg speedWind from/ knotsBaromVisibWave heightAir tempDewpointWater temp
2016-Dec-03 12:00N 40°07' W 034°35'1 0.6 18.7
2016-Dec-03 11:00N 40°07' W 034°35'0 0.0 18.7
2016-Dec-03 10:00N 40°07' W 034°35'0 0.5 18.7
2016-Dec-03 09:00N 40°07' W 034°34'1 0.8 18.7
2016-Dec-03 08:00N 40°08' W 034°35'0 0.5 18.7
2016-Dec-03 07:00N 40°08' W 034°34'4 4.3 18.7
2016-Dec-03 06:00N 40°11' W 034°37'0 0.0 18.7
2016-Dec-03 05:00N 40°11' W 034°37'0 0.0 18.8
2016-Dec-03 01:00N 40°11' W 034°37'0 0.0 18.8
2016-Dec-03 00:00N 40°11' W 034°37'1 1.2 18.9
2016-Dec-02 23:00N 40°13' W 034°37'1 0.9 18.9
2016-Dec-02 22:00N 40°13' W 034°38'1 0.6 18.9
2016-Dec-02 21:00N 40°13' W 034°38'1 0.8 18.9
2016-Dec-02 20:00N 40°14' W 034°39'3 0.9 18.9
2016-Dec-02 17:00N 40°16' W 034°41'0 0.0 18.9
2016-Dec-02 16:00N 40°16' W 034°41'0 0.5 18.9
2016-Dec-02 15:00N 40°16' W 034°42'1 0.3 18.9
2016-Dec-02 13:00N 40°16' W 034°42'2 1.5 18.9
2016-Dec-02 12:00N 40°17' W 034°43'1 0.8 18.9
2016-Dec-02 11:00N 40°18' W 034°44'0 0.0 18.9
2016-Dec-02 10:00N 40°18' W 034°44'0 0.5 18.9
2016-Dec-02 09:00N 40°18' W 034°43'2 1.5 18.9
2016-Dec-02 08:00N 40°19' W 034°44'1 0.3 18.9
2016-Dec-02 05:00N 40°20' W 034°45'4 0.7 19.0
2016-Dec-01 23:00N 40°21' W 034°50'1 0.6 19.1
2016-Dec-01 22:00N 40°22' W 034°50'1 0.6 19.1
2016-Dec-01 21:00N 40°22' W 034°50'0 0.5 19.1
2016-Dec-01 20:00N 40°22' W 034°50'0 0.0 19.1
2016-Dec-01 19:00N 40°22' W 034°50'1 1.4 19.1
2016-Dec-01 18:00N 40°22' W 034°52'0 0.0 19.1
2016-Dec-01 17:00N 40°22' W 034°52'2 2.3 19.2
2016-Dec-01 16:00N 40°24' W 034°53'0 0.0 19.2
2016-Dec-01 15:00N 40°24' W 034°53'0 0.0 19.2
2016-Dec-01 14:00N 40°24' W 034°53'2 1.9 19.2
2016-Dec-01 13:00N 40°25' W 034°56'0 0.0 19.2
2016-Dec-01 12:00N 40°25' W 034°56'1 1.3 19.3
2016-Dec-01 11:00N 40°26' W 034°56'1 0.6 19.3
2016-Dec-01 10:00N 40°25' W 034°56'1 0.7 19.3
2016-Dec-01 08:00N 40°26' W 034°58'1 1.4 19.3
2016-Dec-01 07:00N 40°26' W 035°00'1 0.7 19.3
2016-Dec-01 05:00N 40°25' W 035°02'3 3.0 19.3
2016-Dec-01 04:00N 40°22' W 035°02'0 0.0 19.3
2016-Dec-01 03:00N 40°22' W 035°02'1 0.3 19.3
2016-Dec-01 00:00N 40°23' W 035°01'0 0.0 19.4
2016-Nov-30 23:00N 40°23' W 035°01'1 0.8 19.5
2016-Nov-30 22:00N 40°23' W 035°02'1 0.8 19.5
2016-Nov-30 21:00N 40°23' W 035°02'0 0.0 19.5
2016-Nov-30 20:00N 40°23' W 035°02'0 0.0 19.5
2016-Nov-30 19:00N 40°23' W 035°02'1 0.6 19.5
2016-Nov-30 18:00N 40°22' W 035°02'1 1.5 19.5
2016-Nov-30 17:00N 40°22' W 035°04'0 0.0 19.6
2016-Nov-30 16:00N 40°22' W 035°04'2 0.5 19.6
2016-Nov-30 13:00N 40°20' W 035°05'1 0.8 19.6
2016-Nov-30 12:00N 40°20' W 035°05'0 0.5 19.6
2016-Nov-30 11:00N 40°20' W 035°04'1 0.6 19.6
2016-Nov-30 10:00N 40°19' W 035°04'0 0.0 19.6
2016-Nov-30 09:00N 40°19' W 035°04'1 0.9 19.6
2016-Nov-30 08:00N 40°19' W 035°03'1 1.5 19.6
2016-Nov-30 07:00N 40°19' W 035°05'1 0.8 19.6
2016-Nov-30 06:00N 40°18' W 035°05'0 0.0 19.6
2016-Nov-30 05:00N 40°18' W 035°05'2 1.5 19.6
2016-Nov-30 04:00N 40°17' W 035°07'0 0.0 19.6
2016-Nov-30 00:00N 40°17' W 035°07'1 0.6 19.7
2016-Nov-29 23:00N 40°16' W 035°07'1 1.3 19.7
2016-Nov-29 22:00N 40°15' W 035°06'0 0.0 19.7
2016-Nov-29 21:00N 40°15' W 035°06'1 1.5 19.7
2016-Nov-29 20:00N 40°14' W 035°08'0 0.0 19.7
2016-Nov-29 19:00N 40°14' W 035°08'1 0.8 19.7
2016-Nov-29 18:00N 40°14' W 035°08'0 0.0 19.7
2016-Nov-29 17:00N 40°14' W 035°08'0 0.0 19.7
2016-Nov-29 16:00N 40°14' W 035°08'0 0.0 19.7
2016-Nov-29 15:00N 40°14' W 035°08'3 3.0 19.7
2016-Nov-29 14:00N 40°11' W 035°06'0 0.0 19.7
2016-Nov-29 13:00N 40°11' W 035°06'0 0.0 19.7
2016-Nov-29 12:00N 40°11' W 035°06'1 1.4 19.7
2016-Nov-29 11:00N 40°11' W 035°08'1 0.9 19.7
2016-Nov-29 10:00N 40°11' W 035°09'0 0.0 19.7
2016-Nov-29 09:00N 40°11' W 035°09'1 0.6 19.7
2016-Nov-29 08:00N 40°11' W 035°09'2 1.8 19.7
2016-Nov-29 07:00N 40°11' W 035°07'2 2.4 19.7
2016-Nov-29 06:00N 40°10' W 035°10'4 0.5 19.7
2016-Nov-28 23:00N 40°07' W 035°10'0 0.0 19.7
2016-Nov-28 22:00N 40°07' W 035°10'3 2.8 19.7
2016-Nov-28 21:00N 40°04' W 035°08'1 1.3 19.7
2016-Nov-28 20:00N 40°05' W 035°09'1 0.6 19.8
2016-Nov-28 19:00N 40°05' W 035°09'0 0.0 19.8
2016-Nov-28 18:00N 40°05' W 035°09'1 0.6 19.8
2016-Nov-28 16:00N 40°04' W 035°08'0 0.0 19.8
2016-Nov-28 15:00N 40°04' W 035°08'0 0.0 19.8
2016-Nov-28 14:00N 40°04' W 035°08'1 0.5 19.8
2016-Nov-28 12:00N 40°03' W 035°10'0 0.0 19.8
2016-Nov-28 11:00N 40°03' W 035°10'1 0.8 19.8
2016-Nov-28 10:00N 40°02' W 035°10'2 2.3 19.8
2016-Nov-28 09:00N 40°01' W 035°08'0 0.0 19.8
2016-Nov-28 07:00N 40°01' W 035°08'1 1.1 19.8
2016-Nov-28 06:00N 40°01' W 035°10'3 2.6 19.8
2016-Nov-28 05:00N 39°59' W 035°08'0 0.0 19.8
2016-Nov-28 01:00N 39°59' W 035°08'1 1.1 19.8
2016-Nov-28 00:00N 39°58' W 035°10'1 1.4 19.8
2016-Nov-27 23:00N 39°58' W 035°08'0 0.0 19.8
2016-Nov-27 22:00N 39°58' W 035°08'0 0.0 19.8
2016-Nov-27 21:00N 39°58' W 035°08'1 1.1 19.8
2016-Nov-27 20:00N 39°58' W 035°07'2 1.5 19.9
2016-Nov-27 19:00N 39°57' W 035°08'1 0.6 19.9
2016-Nov-27 18:00N 39°58' W 035°08'1 0.6 19.9
2016-Nov-27 17:00N 39°57' W 035°08'0 0.0 19.9
2016-Nov-27 16:00N 39°57' W 035°08'3 1.3 19.9
2016-Nov-27 14:00N 39°55' W 035°07'0 0.0 19.9
2016-Nov-27 13:00N 39°55' W 035°07'1 1.2 19.9
2016-Nov-27 12:00N 39°53' W 035°07'0 0.0 19.9
2016-Nov-27 11:00N 39°53' W 035°07'1 0.6 19.8
2016-Nov-27 10:00N 39°54' W 035°07'1 0.3 19.8
2016-Nov-27 08:00N 39°53' W 035°07'1 0.6 19.8
2016-Nov-27 07:00N 39°53' W 035°07'0 0.0 19.8
2016-Nov-27 06:00N 39°53' W 035°07'1 1.2 19.9
2016-Nov-27 05:00N 39°52' W 035°07'1 1.3 19.9
2016-Nov-27 04:00N 39°53' W 035°07'2 0.5 19.9
2016-Nov-27 00:00N 39°52' W 035°08'0 0.5 19.9
2016-Nov-26 23:00N 39°52' W 035°08'1 1.2 19.9
2016-Nov-26 22:00N 39°50' W 035°08'0 0.0 19.9
2016-Nov-26 21:00N 39°50' W 035°08'1 1.4 19.9
2016-Nov-26 20:00N 39°50' W 035°06'2 1.9 19.9
2016-Nov-26 19:00N 39°50' W 035°08'2 1.9 19.9
2016-Nov-26 18:00N 39°49' W 035°06'0 0.0 19.9
2016-Nov-26 17:00N 39°49' W 035°06'0 0.0 19.9
2016-Nov-26 16:00N 39°49' W 035°06'1 0.8 19.9
2016-Nov-26 15:00N 39°49' W 035°05'0 0.0 19.9
2016-Nov-26 14:00N 39°49' W 035°05'1 0.8 19.9
2016-Nov-26 13:00N 39°48' W 035°06'0 0.0 19.9
2016-Nov-26 12:00N 39°48' W 035°06'0 0.0 19.9
2016-Nov-26 11:00N 39°48' W 035°06'1 0.6 19.9
2016-Nov-26 10:00N 39°49' W 035°06'1 0.6 19.9
2016-Nov-26 09:00N 39°48' W 035°06'0 0.0 19.9
2016-Nov-26 08:00N 39°48' W 035°06'1 0.6 19.9
2016-Nov-26 07:00N 39°47' W 035°06'0 0.0 19.9
2016-Nov-26 06:00N 39°47' W 035°06'1 0.4 19.9
2016-Nov-26 03:00N 39°46' W 035°07'0 0.0 19.9
2016-Nov-26 00:00N 39°46' W 035°07'2 2.3 19.9
2016-Nov-25 23:00N 39°46' W 035°04'1 1.1 19.9
2016-Nov-25 22:00N 39°46' W 035°05'0 0.2 19.9
2016-Nov-25 20:00N 39°46' W 035°04'1 0.6 19.9
2016-Nov-25 19:00N 39°45' W 035°04'0 0.0 19.9
2016-Nov-25 18:00N 39°45' W 035°04'0 0.0 20.0
2016-Nov-25 17:00N 39°45' W 035°04'0 0.0 20.0
2016-Nov-25 16:00N 39°45' W 035°04'0 0.0 20.0
2016-Nov-25 15:00N 39°45' W 035°04'0 0.5 20.0
2016-Nov-25 14:00N 39°45' W 035°04'1 1.1 19.9
2016-Nov-25 13:00N 39°46' W 035°05'1 1.1 19.9
2016-Nov-25 12:00N 39°45' W 035°04'1 0.8 19.9
2016-Nov-25 11:00N 39°44' W 035°04'0 0.0 19.9
2016-Nov-25 10:00N 39°44' W 035°04'1 1.1 19.9
2016-Nov-25 09:00N 39°44' W 035°05'1 0.9 19.9
2016-Nov-25 08:00N 39°44' W 035°04'0 0.5 19.9
2016-Nov-25 07:00N 39°44' W 035°04'0 0.0 19.9
2016-Nov-25 06:00N 39°44' W 035°04'3 3.0 19.9
2016-Nov-25 05:00N 39°41' W 035°06'1 0.3 19.9
2016-Nov-25 00:00N 39°41' W 035°04'1 0.8 20.0
2016-Nov-24 23:00N 39°41' W 035°05'1 0.8 20.0
2016-Nov-24 22:00N 39°41' W 035°05'2 1.5 20.0
2016-Nov-24 21:00N 39°40' W 035°04'0 0.0 20.0
2016-Nov-24 20:00N 39°40' W 035°04'0 0.5 20.0
2016-Nov-24 19:00N 39°40' W 035°05'1 0.8 20.0
2016-Nov-24 18:00N 39°40' W 035°04'2 1.5 20.0
2016-Nov-24 17:00N 39°39' W 035°06'2 1.5 20.0
2016-Nov-24 16:00N 39°40' W 035°04'2 1.5 20.0
2016-Nov-24 15:00N 39°39' W 035°06'2 1.1 20.0
2016-Nov-24 13:00N 39°38' W 035°04'1 0.8 20.0
2016-Nov-24 12:00N 39°38' W 035°04'2 1.5 20.0
2016-Nov-24 11:00N 39°38' W 035°06'0 0.0 20.0
2016-Nov-24 10:00N 39°38' W 035°06'1 1.1 20.0
2016-Nov-24 09:00N 39°37' W 035°05'0 0.0 20.0
2016-Nov-24 08:00N 39°37' W 035°05'1 1.1 20.0
2016-Nov-24 07:00N 39°37' W 035°04'0 0.0 20.0
2016-Nov-24 06:00N 39°37' W 035°04'1 0.9 20.0
2016-Nov-24 05:00N 39°37' W 035°05'0 0.5 20.0
2016-Nov-24 04:00N 39°37' W 035°05'0 0.0 20.0
2016-Nov-24 03:00N 39°37' W 035°05'1 0.3 20.0
2016-Nov-24 00:00N 39°36' W 035°05'0 0.0 20.0
2016-Nov-23 23:00N 39°36' W 035°05'0 0.0 20.0
2016-Nov-23 22:00N 39°36' W 035°05'1 1.3 20.0
2016-Nov-23 21:00N 39°35' W 035°04'0 0.5 20.0
2016-Nov-23 20:00N 39°35' W 035°05'1 0.6 20.0
2016-Nov-23 19:00N 39°34' W 035°05'0 0.5 20.0
2016-Nov-23 18:00N 39°34' W 035°04'1 0.6 20.0
2016-Nov-23 17:00N 39°34' W 035°04'0 0.0 20.0
2016-Nov-23 16:00N 39°34' W 035°04'0 0.0 20.0
2016-Nov-23 15:00N 39°34' W 035°04'1 0.4 20.0
2016-Nov-23 12:00N 39°33' W 035°03'   20.0

Dump ship's entire track history